Time;durP1;ratioP1;P1;durP2;ratioP2;P2;SDS_P1;SDS_P2;PMS_P1;PMS_P2;Temp;Humidity;BMP_temperature;BMP_pressure;BME280_temperature;BME280_humidity;BME280_pressure;Samples;Min_cycle;Max_cycle;Signal;HPM_P1;HPM_P2
2022/04/05 00:02:07;;;;;;;;;;;16.40;30.90;;;;;;8368096;28;20370;-47
2022/04/05 00:06:08;;;;;;;;;;;16.40;30.90;;;;;;8367605;28;19977;-49
2022/04/05 00:10:08;;;;;;;;;;;16.40;30.90;;;;;;8367726;28;19921;-50
2022/04/05 00:14:09;;;;;;;;;;;16.40;30.90;;;;;;8367817;28;19916;-49
2022/04/05 00:18:09;;;;;;;;;;;16.40;30.90;;;;;;8366960;28;19917;-48
2022/04/05 00:22:10;;;;;;;;;;;16.40;30.90;;;;;;8367265;28;19932;-47
2022/04/05 00:26:10;;;;;;;;;;;16.40;30.90;;;;;;8367480;28;19920;-51
2022/04/05 00:30:11;;;;;;;;;;;16.40;30.90;;;;;;8366084;28;19923;-49
2022/04/05 00:34:13;;;;;;;;;;;16.40;30.90;;;;;;8367214;28;19924;-49
2022/04/05 00:38:14;;;;;;;;;;;16.40;30.90;;;;;;8366893;28;19923;-47
2022/04/05 00:42:14;;;;;;;;;;;16.40;30.90;;;;;;8366755;28;19928;-49
2022/04/05 00:46:14;;;;;;;;;;;16.40;31.00;;;;;;8367203;28;19920;-48
2022/04/05 00:50:21;;;;;;;;;;;16.40;31.00;;;;;;8366067;28;19917;-47
2022/04/05 00:54:23;;;;;;;;;;;16.40;31.00;;;;;;8366351;28;19917;-49
2022/04/05 00:58:24;;;;;;;;;;;16.30;31.00;;;;;;8366548;28;20006;-48
2022/04/05 01:02:27;;;;;;;;;;;16.30;31.00;;;;;;8365598;28;19932;-49
2022/04/05 01:06:30;;;;;;;;;;;16.30;31.00;;;;;;8365024;28;19913;-49
2022/04/05 01:10:32;;;;;;;;;;;16.30;31.10;;;;;;8365830;28;19917;-48
2022/04/05 01:14:32;;;;;;;;;;;16.30;31.10;;;;;;8365442;28;20395;-46
2022/04/05 01:18:33;;;;;;;;;;;16.40;31.10;;;;;;8365651;28;19932;-48
2022/04/05 01:22:34;;;;;;;;;;;16.40;31.20;;;;;;8365548;28;19925;-46
2022/04/05 01:26:37;;;;;;;;;;;16.40;31.20;;;;;;8365110;28;20389;-47
2022/04/05 01:30:38;;;;;;;;;;;16.40;31.20;;;;;;8365528;28;20008;-46
2022/04/05 01:34:38;;;;;;;;;;;16.40;31.10;;;;;;8365122;28;19921;-47
2022/04/05 01:38:39;;;;;;;;;;;16.40;31.10;;;;;;8364544;28;20003;-47
2022/04/05 01:42:39;;;;;;;;;;;16.40;31.10;;;;;;8363855;28;19939;-48
2022/04/05 01:46:39;;;;;;;;;;;16.40;31.10;;;;;;8380357;28;19917;-46
2022/04/05 01:50:40;;;;;;;;;;;16.40;31.10;;;;;;8342578;28;20393;-47
2022/04/05 01:54:41;;;;;;;;;;;16.40;31.10;;;;;;8331559;28;20346;-47
2022/04/05 01:58:41;;;;;;;;;;;16.40;31.10;;;;;;8331173;28;19932;-46
2022/04/05 02:02:42;;;;;;;;;;;16.40;31.10;;;;;;8330703;28;19957;-47
2022/04/05 02:06:43;;;;;;;;;;;16.40;31.10;;;;;;8331221;28;19975;-45
2022/04/05 02:10:43;;;;;;;;;;;16.40;31.10;;;;;;8331223;28;19917;-50
2022/04/05 02:14:44;;;;;;;;;;;16.40;31.10;;;;;;8330564;28;19925;-47
2022/04/05 02:18:45;;;;;;;;;;;16.40;31.10;;;;;;8331071;28;20332;-48
2022/04/05 02:22:45;;;;;;;;;;;16.40;31.10;;;;;;8330582;28;20003;-47
2022/04/05 02:26:46;;;;;;;;;;;16.40;31.20;;;;;;8330353;28;19913;-46
2022/04/05 02:30:46;;;;;;;;;;;16.40;31.20;;;;;;8330437;28;19928;-46
2022/04/05 02:34:47;;;;;;;;;;;16.40;31.20;;;;;;8330638;28;19917;-52
2022/04/05 02:38:47;;;;;;;;;;;16.40;31.20;;;;;;8329982;28;20017;-47
2022/04/05 02:42:48;;;;;;;;;;;16.40;31.20;;;;;;8330538;28;19925;-47
2022/04/05 02:46:48;;;;;;;;;;;16.40;31.20;;;;;;8330580;28;19971;-46
2022/04/05 02:50:49;;;;;;;;;;;16.30;31.20;;;;;;8329692;28;19918;-47
2022/04/05 02:54:49;;;;;;;;;;;16.30;31.20;;;;;;8329710;28;20016;-50
2022/04/05 02:58:50;;;;;;;;;;;16.30;31.20;;;;;;8330056;28;19948;-49
2022/04/05 03:02:50;;;;;;;;;;;16.30;31.20;;;;;;8329694;28;19928;-48
2022/04/05 03:06:51;;;;;;;;;;;16.30;31.30;;;;;;8329817;28;19924;-46
2022/04/05 03:10:52;;;;;;;;;;;16.30;31.30;;;;;;8329791;28;20289;-47
2022/04/05 03:14:53;;;;;;;;;;;16.30;31.30;;;;;;8329337;28;20382;-47
2022/04/05 03:18:53;;;;;;;;;;;16.30;31.30;;;;;;8329747;28;19924;-47
2022/04/05 03:22:55;;;;;;;;;;;16.30;31.30;;;;;;8329770;28;19921;-46
2022/04/05 03:26:56;;;;;;;;;;;16.30;31.30;;;;;;8329193;28;20372;-47
2022/04/05 03:30:56;;;;;;;;;;;16.30;31.40;;;;;;8329486;28;19924;-47
2022/04/05 03:34:57;;;;;;;;;;;16.30;31.30;;;;;;8329455;28;19917;-48
2022/04/05 03:38:57;;;;;;;;;;;16.30;31.30;;;;;;8329079;28;19921;-50
2022/04/05 03:42:58;;;;;;;;;;;16.30;31.30;;;;;;8329690;28;19975;-50
2022/04/05 03:46:59;;;;;;;;;;;16.30;31.30;;;;;;8329330;28;19930;-48
2022/04/05 03:51:00;;;;;;;;;;;16.30;31.30;;;;;;8328731;28;19924;-49
2022/04/05 03:55:00;;;;;;;;;;;16.30;31.30;;;;;;8328979;28;20398;-51
2022/04/05 03:59:01;;;;;;;;;;;16.30;31.30;;;;;;8328996;28;20348;-52
2022/04/05 04:03:03;;;;;;;;;;;16.30;31.30;;;;;;8328559;28;19921;-50
2022/04/05 04:07:03;;;;;;;;;;;16.30;31.40;;;;;;8334377;28;19917;-48
2022/04/05 04:11:04;;;;;;;;;;;16.30;31.30;;;;;;8359711;28;19967;-48
2022/04/05 04:15:05;;;;;;;;;;;16.30;31.30;;;;;;8367162;28;19921;-51
2022/04/05 04:19:05;;;;;;;;;;;16.30;31.30;;;;;;8367597;28;19923;-52
2022/04/05 04:23:06;;;;;;;;;;;16.30;31.40;;;;;;8367570;28;19921;-49
2022/04/05 04:27:06;;;;;;;;;;;16.30;31.40;;;;;;8366816;28;19952;-49
2022/04/05 04:31:07;;;;;;;;;;;16.30;31.30;;;;;;8367343;28;20282;-49
2022/04/05 04:35:08;;;;;;;;;;;16.30;31.40;;;;;;8366896;28;19917;-48
2022/04/05 04:39:09;;;;;;;;;;;16.30;31.40;;;;;;8366417;28;19920;-47
2022/04/05 04:43:10;;;;;;;;;;;16.30;31.40;;;;;;8366732;28;19927;-47
2022/04/05 04:47:10;;;;;;;;;;;16.30;31.40;;;;;;8366785;28;19921;-48
2022/04/05 04:51:12;;;;;;;;;;;16.30;31.30;;;;;;8366025;28;19916;-46
2022/04/05 04:55:12;;;;;;;;;;;16.30;31.40;;;;;;8366538;28;19921;-49
2022/04/05 04:59:13;;;;;;;;;;;16.30;31.40;;;;;;8366436;28;19962;-48
2022/04/05 05:03:18;;;;;;;;;;;16.30;31.40;;;;;;8365814;28;20011;-48
2022/04/05 05:07:18;;;;;;;;;;;16.30;31.40;;;;;;8369767;28;19917;-50
2022/04/05 05:11:19;;;;;;;;;;;16.30;31.50;;;;;;8355310;28;19928;-48
2022/04/05 05:15:21;;;;;;;;;;;16.30;31.50;;;;;;8331992;28;19918;-49
2022/04/05 05:19:22;;;;;;;;;;;16.30;31.50;;;;;;8332761;28;19952;-48
2022/04/05 05:23:22;;;;;;;;;;;16.30;31.50;;;;;;8332330;28;19921;-48
2022/04/05 05:27:23;;;;;;;;;;;16.30;31.50;;;;;;8332608;28;19917;-48
2022/04/05 05:31:23;;;;;;;;;;;16.30;31.60;;;;;;8332376;28;19924;-49
2022/04/05 05:35:24;;;;;;;;;;;16.30;31.60;;;;;;8331600;28;19924;-47
2022/04/05 05:39:24;;;;;;;;;;;16.30;31.60;;;;;;8332004;28;19917;-49
2022/04/05 05:43:24;;;;;;;;;;;16.30;31.60;;;;;;8331913;28;19928;-47
2022/04/05 05:47:25;;;;;;;;;;;16.30;31.60;;;;;;8331204;28;19918;-49
2022/04/05 05:51:25;;;;;;;;;;;16.30;31.60;;;;;;8331691;28;19972;-49
2022/04/05 05:55:26;;;;;;;;;;;16.30;31.60;;;;;;8331539;28;19921;-48
2022/04/05 05:59:28;;;;;;;;;;;16.30;31.60;;;;;;8331025;28;19916;-49
2022/04/05 06:03:28;;;;;;;;;;;16.30;31.60;;;;;;8331283;28;19967;-50
2022/04/05 06:07:29;;;;;;;;;;;16.30;31.60;;;;;;8331387;28;20278;-49
2022/04/05 06:11:29;;;;;;;;;;;16.30;31.60;;;;;;8330566;28;19921;-48
2022/04/05 06:15:29;;;;;;;;;;;16.30;31.60;;;;;;8330783;28;20297;-50
2022/04/05 06:19:30;;;;;;;;;;;16.30;31.70;;;;;;8331423;28;20561;-51
2022/04/05 06:23:30;;;;;;;;;;;16.30;31.70;;;;;;8330338;28;19953;-49
2022/04/05 06:27:31;;;;;;;;;;;16.30;31.70;;;;;;8330164;28;20297;-48
2022/04/05 06:31:31;;;;;;;;;;;16.30;31.70;;;;;;8330332;28;19940;-50
2022/04/05 06:35:32;;;;;;;;;;;16.30;31.70;;;;;;8329835;28;19995;-50
2022/04/05 06:39:32;;;;;;;;;;;16.30;31.70;;;;;;8330754;28;19913;-49
2022/04/05 06:43:33;;;;;;;;;;;16.30;31.70;;;;;;8330293;28;19921;-48
2022/04/05 06:47:33;;;;;;;;;;;16.30;31.70;;;;;;8329702;28;19924;-47
2022/04/05 06:51:34;;;;;;;;;;;16.30;31.70;;;;;;8329915;28;19920;-49
2022/04/05 06:55:34;;;;;;;;;;;16.30;31.70;;;;;;8330014;28;20282;-47
2022/04/05 06:59:35;;;;;;;;;;;16.30;31.70;;;;;;8329514;28;20003;-47
2022/04/05 07:03:36;;;;;;;;;;;16.30;31.70;;;;;;8334891;28;19928;-48
2022/04/05 07:07:37;;;;;;;;;;;16.30;31.70;;;;;;8362933;28;19925;-46
2022/04/05 07:11:37;;;;;;;;;;;16.30;31.70;;;;;;8362286;28;20270;-51
2022/04/05 07:15:38;;;;;;;;;;;16.40;31.70;;;;;;8362572;28;19917;-49
2022/04/05 07:19:38;;;;;;;;;;;16.40;31.80;;;;;;8362794;28;20254;-48
2022/04/05 07:23:39;;;;;;;;;;;16.40;31.80;;;;;;8362268;28;19921;-53
2022/04/05 07:27:39;;;;;;;;;;;16.40;31.70;;;;;;8362289;28;19974;-49
2022/04/05 07:31:39;;;;;;;;;;;16.40;31.70;;;;;;8362217;28;19978;-49
2022/04/05 07:35:40;;;;;;;;;;;16.40;31.70;;;;;;8361769;28;20373;-47
2022/04/05 07:39:42;;;;;;;;;;;16.40;31.70;;;;;;8364766;28;20286;-49
2022/04/05 07:43:42;;;;;;;;;;;16.40;31.70;;;;;;8368485;28;19932;-52
2022/04/05 07:47:43;;;;;;;;;;;16.40;31.70;;;;;;8367930;28;20004;-48
2022/04/05 07:51:44;;;;;;;;;;;16.40;31.70;;;;;;8368443;28;19917;-49
2022/04/05 07:55:44;;;;;;;;;;;16.40;31.70;;;;;;8368335;28;19928;-47
2022/04/05 07:59:45;;;;;;;;;;;16.40;31.70;;;;;;8367829;28;20343;-47
2022/04/05 08:03:45;;;;;;;;;;;16.50;31.80;;;;;;8368266;28;20387;-48
2022/04/05 08:07:46;;;;;;;;;;;16.50;31.80;;;;;;8367774;28;19917;-49
2022/04/05 08:11:47;;;;;;;;;;;16.50;31.80;;;;;;8367351;28;19917;-51
2022/04/05 08:15:47;;;;;;;;;;;16.40;31.70;;;;;;8367838;28;19935;-49
2022/04/05 08:19:48;;;;;;;;;;;16.50;31.80;;;;;;8367581;28;19958;-47
2022/04/05 08:23:50;;;;;;;;;;;16.50;31.80;;;;;;8366671;28;20359;-48
2022/04/05 08:27:51;;;;;;;;;;;16.50;31.70;;;;;;8367064;28;19917;-47
2022/04/05 08:31:51;;;;;;;;;;;16.50;31.70;;;;;;8367159;28;20292;-50
2022/04/05 08:35:52;;;;;;;;;;;16.50;31.70;;;;;;8366452;28;19924;-50
2022/04/05 08:39:52;;;;;;;;;;;16.50;31.70;;;;;;8367016;28;19912;-47
2022/04/05 08:43:53;;;;;;;;;;;16.60;31.70;;;;;;8366662;28;19924;-48
2022/04/05 08:47:56;;;;;;;;;;;16.60;31.70;;;;;;8366059;28;19921;-46
2022/04/05 08:51:56;;;;;;;;;;;16.60;31.70;;;;;;8366169;28;19920;-48
2022/04/05 08:55:57;;;;;;;;;;;16.60;31.70;;;;;;8366363;28;20054;-48
2022/04/05 08:59:57;;;;;;;;;;;16.60;31.70;;;;;;8396141;28;19948;-51
2022/04/05 09:03:58;;;;;;;;;;;16.60;31.70;;;;;;8337742;28;20012;-51
2022/04/05 09:08:16;;;;;;;;;;;16.60;31.70;;;;;;8332988;28;19917;-50
2022/04/05 09:12:17;;;;;;;;;;;16.60;31.60;;;;;;8332774;28;20293;-50
2022/04/05 09:16:24;;;;;;;;;;;16.60;31.60;;;;;;8332561;28;19924;-50
2022/04/05 09:20:26;;;;;;;;;;;16.60;31.60;;;;;;8332170;28;19920;-49
2022/04/05 09:24:38;;;;;;;;;;;16.60;31.60;;;;;;8332740;28;20012;-51
2022/04/05 09:28:40;;;;;;;;;;;16.60;31.60;;;;;;8332535;28;20255;-50
2022/04/05 09:32:42;;;;;;;;;;;16.60;31.60;;;;;;8331786;28;19921;-49
2022/04/05 09:36:43;;;;;;;;;;;16.70;31.70;;;;;;8332253;28;19917;-49
2022/04/05 09:40:44;;;;;;;;;;;16.70;31.60;;;;;;8332057;28;19918;-49
2022/04/05 09:44:44;;;;;;;;;;;16.70;31.60;;;;;;8313925;28;19924;-48
2022/04/05 09:48:46;;;;;;;;;;;16.70;31.60;;;;;;8331941;28;20012;-48
2022/04/05 09:52:46;;;;;;;;;;;16.70;31.60;;;;;;8331713;28;19924;-50
2022/04/05 09:56:47;;;;;;;;;;;16.70;31.60;;;;;;8330838;28;20003;-50
2022/04/05 10:01:00;;;;;;;;;;;16.70;31.50;;;;;;8331169;28;19921;-51
2022/04/05 10:05:02;;;;;;;;;;;16.70;31.50;;;;;;8331024;28;19917;-50
2022/04/05 10:09:03;;;;;;;;;;;16.70;31.50;;;;;;8330695;28;19945;-48
2022/04/05 10:13:04;;;;;;;;;;;16.70;31.50;;;;;;8331215;28;19924;-51
2022/04/05 10:17:04;;;;;;;;;;;16.70;31.50;;;;;;8331057;28;19920;-49
2022/04/05 10:21:05;;;;;;;;;;;16.70;31.50;;;;;;8330161;28;19925;-48
2022/04/05 10:25:06;;;;;;;;;;;16.80;31.50;;;;;;8331196;28;19918;-47
2022/04/05 10:29:15;;;;;;;;;;;16.80;31.50;;;;;;8330499;28;20013;-50
2022/04/05 10:33:24;;;;;;;;;;;16.80;31.50;;;;;;8330232;28;19960;-46
2022/04/05 10:37:31;;;;;;;;;;;16.80;31.50;;;;;;8330267;28;19913;-47
2022/04/05 10:41:31;;;;;;;;;;;16.80;31.50;;;;;;8329554;28;20019;-48
2022/04/05 10:45:41;;;;;;;;;;;16.80;31.40;;;;;;8330293;28;20305;-51
2022/04/05 10:49:42;;;;;;;;;;;16.80;31.50;;;;;;8330101;28;19924;-50
2022/04/05 10:54:17;;;;;;;;;;;16.80;31.50;;;;;;8329394;28;19924;-48
2022/04/05 10:58:10;;;;;;;;;;;16.80;31.40;;;;;;8329926;28;20290;-47
2022/04/05 11:02:26;;;;;;;;;;;16.90;31.50;;;;;;8329731;28;19925;-48
2022/04/05 11:06:26;;;;;;;;;;;16.90;31.50;;;;;;8329632;28;19925;-50
2022/04/05 11:10:28;;;;;;;;;;;16.90;31.50;;;;;;8330119;28;19917;-47
2022/04/05 11:14:38;;;;;;;;;;;16.90;31.40;;;;;;8332731;28;20290;-49
2022/04/05 11:18:40;;;;;;;;;;;16.90;31.50;;;;;;8336491;28;20329;-48
2022/04/05 11:22:41;;;;;;;;;;;16.90;31.50;;;;;;8336133;28;19922;-46
2022/04/05 11:26:41;;;;;;;;;;;16.90;31.50;;;;;;8335510;28;20019;-49
2022/04/05 11:30:54;;;;;;;;;;;17.00;31.50;;;;;;8336129;28;20220;-49
2022/04/05 11:34:55;;;;;;;;;;;16.90;31.50;;;;;;8335751;28;19965;-51
2022/04/05 11:38:58;;;;;;;;;;;17.00;31.50;;;;;;8335232;28;20302;-52
2022/04/05 11:43:00;;;;;;;;;;;17.00;31.50;;;;;;8335840;28;19925;-49
2022/04/05 11:47:02;;;;;;;;;;;17.00;31.50;;;;;;8335338;28;19921;-50
2022/04/05 11:51:07;;;;;;;;;;;17.00;31.50;;;;;;8335088;28;19995;-48
2022/04/05 11:56:02;;;;;;;;;;;17.00;31.40;;;;;;8335167;28;20438;-51
2022/04/05 11:59:43;;;;;;;;;;;17.00;31.50;;;;;;8327574;28;19964;-47
2022/04/05 12:04:02;;;;;;;;;;;17.10;31.50;;;;;;8335082;28;19929;-51
2022/04/05 12:08:03;;;;;;;;;;;17.10;31.50;;;;;;8335049;28;19924;-48
2022/04/05 12:12:04;;;;;;;;;;;17.10;31.50;;;;;;8334320;28;19921;-49
2022/04/05 12:16:06;;;;;;;;;;;17.10;31.40;;;;;;8334781;28;19919;-47
2022/04/05 12:20:07;;;;;;;;;;;17.10;31.40;;;;;;8334490;28;19975;-49
2022/04/05 12:24:08;;;;;;;;;;;17.10;31.40;;;;;;8333763;28;20405;-50
2022/04/05 12:28:08;;;;;;;;;;;17.20;31.50;;;;;;8334010;28;19952;-47
2022/04/05 12:32:10;;;;;;;;;;;17.20;31.50;;;;;;8333956;28;20016;-48
2022/04/05 12:36:11;;;;;;;;;;;17.20;31.40;;;;;;8333711;28;20361;-47
2022/04/05 12:40:21;;;;;;;;;;;17.20;31.50;;;;;;8333876;28;19924;-47
2022/04/05 12:44:23;;;;;;;;;;;17.20;31.40;;;;;;8333155;28;20531;-48
2022/04/05 12:48:25;;;;;;;;;;;17.20;31.40;;;;;;8333541;28;19956;-50
2022/04/05 12:52:26;;;;;;;;;;;17.30;31.50;;;;;;8333817;28;19917;-46
2022/04/05 12:56:29;;;;;;;;;;;17.30;31.50;;;;;;8333152;28;19921;-48
2022/04/05 13:00:32;;;;;;;;;;;17.30;31.50;;;;;;8333334;28;20087;-49
2022/04/05 13:04:33;;;;;;;;;;;17.30;31.50;;;;;;8338500;28;20012;-50
2022/04/05 13:08:35;;;;;;;;;;;17.30;31.50;;;;;;8365220;28;20986;-51
2022/04/05 13:12:38;;;;;;;;;;;17.30;31.60;;;;;;8366054;28;19920;-49
2022/04/05 13:16:39;;;;;;;;;;;17.30;31.60;;;;;;8366052;28;19966;-50
2022/04/05 13:20:40;;;;;;;;;;;17.40;31.50;;;;;;8364852;28;19916;-49
2022/04/05 13:24:44;;;;;;;;;;;17.40;31.60;;;;;;8365655;28;19921;-49
2022/04/05 13:28:45;;;;;;;;;;;17.40;31.60;;;;;;8365113;28;19917;-53
2022/04/05 13:33:01;;;;;;;;;;;17.40;31.60;;;;;;8382390;28;19932;-52
2022/04/05 13:37:02;;;;;;;;;;;17.40;31.60;;;;;;8331063;28;19914;-51
2022/04/05 13:41:04;;;;;;;;;;;17.40;31.60;;;;;;8331633;28;19925;-48
2022/04/05 13:45:05;;;;;;;;;;;17.40;31.60;;;;;;8331265;28;20374;-48
2022/04/05 13:49:10;;;;;;;;;;;17.40;31.60;;;;;;8331361;28;19971;-48
2022/04/05 13:53:10;;;;;;;;;;;17.50;31.60;;;;;;8339544;28;19924;-49
2022/04/05 13:57:13;;;;;;;;;;;17.50;31.60;;;;;;8364157;28;20015;-48
2022/04/05 14:01:22;;;;;;;;;;;17.50;31.70;;;;;;8357286;28;19967;-47
2022/04/05 14:05:22;;;;;;;;;;;17.50;31.70;;;;;;8325588;28;19929;-47
2022/04/05 14:09:22;;;;;;;;;;;17.50;31.70;;;;;;8325643;28;20493;-46
2022/04/05 14:13:23;;;;;;;;;;;17.50;31.80;;;;;;8325457;28;19939;-55
2022/04/05 14:17:23;;;;;;;;;;;17.50;31.80;;;;;;8324956;28;19936;-48
2022/04/05 14:21:25;;;;;;;;;;;17.60;31.90;;;;;;8325423;28;19914;-47
2022/04/05 14:25:25;;;;;;;;;;;17.50;31.80;;;;;;8325398;28;19921;-51
2022/04/05 14:29:26;;;;;;;;;;;17.50;31.80;;;;;;8324585;28;20449;-50
2022/04/05 14:33:26;;;;;;;;;;;17.50;31.80;;;;;;8324920;28;19957;-50
2022/04/05 14:37:27;;;;;;;;;;;17.50;31.80;;;;;;8325624;28;20008;-48
2022/04/05 14:41:27;;;;;;;;;;;17.50;31.90;;;;;;8324219;28;19956;-48
2022/04/05 14:45:28;;;;;;;;;;;17.50;31.80;;;;;;8324579;28;20036;-51
2022/04/05 14:49:29;;;;;;;;;;;17.50;31.80;;;;;;8324442;28;19921;-49
2022/04/05 14:53:30;;;;;;;;;;;17.60;31.90;;;;;;8323923;28;20331;-50
2022/04/05 14:57:31;;;;;;;;;;;17.60;31.90;;;;;;8326449;28;19921;-48
2022/04/05 15:01:31;;;;;;;;;;;17.60;31.90;;;;;;8356782;28;19963;-49
2022/04/05 15:05:32;;;;;;;;;;;17.60;31.90;;;;;;8356083;28;20290;-52
2022/04/05 15:09:34;;;;;;;;;;;17.60;31.90;;;;;;8352194;28;20341;-48
2022/04/05 15:13:35;;;;;;;;;;;17.60;31.90;;;;;;8334950;28;19990;-51
2022/04/05 15:17:35;;;;;;;;;;;17.60;31.90;;;;;;8334085;28;19967;-49
2022/04/05 15:21:36;;;;;;;;;;;17.60;31.90;;;;;;8334242;28;20416;-48
2022/04/05 15:25:36;;;;;;;;;;;17.60;31.90;;;;;;8334153;28;19964;-52
2022/04/05 15:29:41;;;;;;;;;;;17.70;32.00;;;;;;8333552;28;20275;-49
2022/04/05 15:33:42;;;;;;;;;;;17.70;32.00;;;;;;8334164;28;19925;-48
2022/04/05 15:37:42;;;;;;;;;;;17.70;32.00;;;;;;8333765;28;19921;-48
2022/04/05 15:41:43;;;;;;;;;;;17.70;32.00;;;;;;8333304;28;19956;-51
2022/04/05 15:45:43;;;;;;;;;;;17.70;32.00;;;;;;8333727;28;19921;-52
2022/04/05 15:49:44;;;;;;;;;;;17.70;32.00;;;;;;8333604;28;19918;-53
2022/04/05 15:53:44;;;;;;;;;;;17.70;32.00;;;;;;8332990;28;19917;-52
2022/04/05 15:57:45;;;;;;;;;;;17.70;32.00;;;;;;8333497;28;19925;-50
2022/04/05 16:01:46;;;;;;;;;;;17.70;32.00;;;;;;8333565;28;19960;-50
2022/04/05 16:05:46;;;;;;;;;;;17.70;32.10;;;;;;8332714;28;20309;-49
2022/04/05 16:09:47;;;;;;;;;;;17.70;32.10;;;;;;8332407;28;20004;-49
2022/04/05 16:13:47;;;;;;;;;;;17.70;32.10;;;;;;8365620;28;20428;-52
2022/04/05 16:17:48;;;;;;;;;;;17.70;32.10;;;;;;8365396;28;19928;-47
2022/04/05 16:21:48;;;;;;;;;;;17.70;32.10;;;;;;8364475;28;19917;-50
2022/04/05 16:25:49;;;;;;;;;;;17.70;32.20;;;;;;8365434;28;20289;-50
2022/04/05 16:29:49;;;;;;;;;;;17.80;32.20;;;;;;8364759;28;20347;-50
2022/04/05 16:33:52;;;;;;;;;;;17.70;32.20;;;;;;8365456;28;20385;-51
2022/04/05 16:37:53;;;;;;;;;;;17.80;32.30;;;;;;8365233;28;20370;-47
2022/04/05 16:41:53;;;;;;;;;;;17.70;32.30;;;;;;8364435;28;19916;-48
2022/04/05 16:45:54;;;;;;;;;;;17.70;32.30;;;;;;8364985;28;19916;-47
2022/04/05 16:50:00;;;;;;;;;;;17.80;32.30;;;;;;8364519;28;19917;-50
2022/04/05 16:54:00;;;;;;;;;;;17.70;32.30;;;;;;8364811;28;20315;-52
2022/04/05 16:58:01;;;;;;;;;;;17.80;32.30;;;;;;8364861;28;19925;-51
2022/04/05 17:02:02;;;;;;;;;;;17.70;32.30;;;;;;8364407;28;19917;-49
2022/04/05 17:06:03;;;;;;;;;;;17.80;32.50;;;;;;8363662;28;19917;-49
2022/04/05 17:10:05;;;;;;;;;;;17.80;32.40;;;;;;8364023;28;19948;-48
2022/04/05 17:14:05;;;;;;;;;;;17.80;32.40;;;;;;8364191;28;20453;-49
2022/04/05 17:18:06;;;;;;;;;;;17.80;32.40;;;;;;8363631;28;19924;-48
2022/04/05 17:22:08;;;;;;;;;;;17.80;32.40;;;;;;8363909;28;19916;-49
2022/04/05 17:26:08;;;;;;;;;;;17.80;32.50;;;;;;8363298;28;20005;-50
2022/04/05 17:30:10;;;;;;;;;;;17.80;32.40;;;;;;8363095;28;19921;-49
2022/04/05 17:34:11;;;;;;;;;;;17.80;32.50;;;;;;8363282;28;19924;-50
2022/04/05 17:38:12;;;;;;;;;;;17.80;32.50;;;;;;8363497;28;19921;-51
2022/04/05 17:42:12;;;;;;;;;;;17.80;32.50;;;;;;8362714;28;19994;-50
2022/04/05 17:46:13;;;;;;;;;;;17.80;32.50;;;;;;8363210;28;19956;-50
2022/04/05 17:50:14;;;;;;;;;;;17.80;32.50;;;;;;8363134;28;19916;-48
2022/04/05 17:54:15;;;;;;;;;;;17.80;32.50;;;;;;8362703;28;20374;-49
2022/04/05 17:58:15;;;;;;;;;;;17.80;32.50;;;;;;8363475;28;19925;-49
2022/04/05 18:02:16;;;;;;;;;;;17.80;32.50;;;;;;8362402;28;20395;-50
2022/04/05 18:06:18;;;;;;;;;;;17.80;32.50;;;;;;8343101;28;19924;-51
2022/04/05 18:10:18;;;;;;;;;;;17.80;32.50;;;;;;8330037;28;19917;-48
2022/04/05 18:14:20;;;;;;;;;;;17.80;32.50;;;;;;8329529;28;20398;-54
2022/04/05 18:18:20;;;;;;;;;;;17.80;32.50;;;;;;8330082;28;20305;-48
2022/04/05 18:22:21;;;;;;;;;;;17.80;32.60;;;;;;8329705;28;19952;-51
2022/04/05 18:26:22;;;;;;;;;;;17.80;32.50;;;;;;8328924;28;19917;-52
2022/04/05 18:30:22;;;;;;;;;;;17.80;32.60;;;;;;8329757;28;19917;-52
2022/04/05 18:34:23;;;;;;;;;;;17.80;32.60;;;;;;8329515;28;19936;-48
2022/04/05 18:38:23;;;;;;;;;;;17.80;32.60;;;;;;8328817;28;20384;-49
2022/04/05 18:42:24;;;;;;;;;;;17.80;32.60;;;;;;8329327;28;19917;-49
2022/04/05 18:46:24;;;;;;;;;;;17.80;32.60;;;;;;8332795;28;19923;-50
2022/04/05 18:50:26;;;;;;;;;;;17.80;32.60;;;;;;8335224;28;19924;-48
2022/04/05 18:54:26;;;;;;;;;;;17.80;32.70;;;;;;8335716;28;20380;-48
2022/04/05 18:58:27;;;;;;;;;;;17.80;32.70;;;;;;8335800;28;19925;-48
2022/04/05 19:02:27;;;;;;;;;;;17.80;32.70;;;;;;8334696;28;19924;-52
2022/04/05 19:06:28;;;;;;;;;;;17.80;32.70;;;;;;8335034;28;19924;-51
2022/04/05 19:10:29;;;;;;;;;;;17.80;32.70;;;;;;8355179;28;20007;-50
2022/04/05 19:14:29;;;;;;;;;;;17.80;32.70;;;;;;8367451;28;19913;-53
2022/04/05 19:18:32;;;;;;;;;;;17.80;32.70;;;;;;8367895;28;19927;-49
2022/04/05 19:22:33;;;;;;;;;;;17.80;32.70;;;;;;8367444;28;19924;-48
2022/04/05 19:26:33;;;;;;;;;;;17.80;32.70;;;;;;8366899;28;19921;-48
2022/04/05 19:30:34;;;;;;;;;;;17.80;32.70;;;;;;8367517;28;19939;-48
2022/04/05 19:34:34;;;;;;;;;;;17.80;32.80;;;;;;8367296;28;19917;-47
2022/04/05 19:38:36;;;;;;;;;;;17.80;32.70;;;;;;8366777;28;20407;-53
2022/04/05 19:42:38;;;;;;;;;;;17.80;32.80;;;;;;8366889;28;19924;-50
2022/04/05 19:46:38;;;;;;;;;;;17.80;32.70;;;;;;8366949;28;19928;-49
2022/04/05 19:50:39;;;;;;;;;;;17.80;32.80;;;;;;8366365;28;19917;-49
2022/04/05 19:54:39;;;;;;;;;;;17.80;32.80;;;;;;8366527;28;19913;-48
2022/04/05 19:58:40;;;;;;;;;;;17.80;32.80;;;;;;8366490;28;19978;-47
2022/04/05 20:02:40;;;;;;;;;;;17.80;32.80;;;;;;8365795;28;19999;-47
2022/04/05 20:06:41;;;;;;;;;;;17.80;32.80;;;;;;8366031;28;19916;-49
2022/04/05 20:10:41;;;;;;;;;;;17.80;32.80;;;;;;8366006;28;20330;-49
2022/04/05 20:14:42;;;;;;;;;;;17.80;32.80;;;;;;8365782;28;20389;-46
2022/04/05 20:18:43;;;;;;;;;;;17.80;32.80;;;;;;8365636;28;19931;-48
2022/04/05 20:22:44;;;;;;;;;;;17.90;32.90;;;;;;8365786;28;19924;-47
2022/04/05 20:26:44;;;;;;;;;;;17.80;32.80;;;;;;8364986;28;19921;-47
2022/04/05 20:30:44;;;;;;;;;;;17.80;32.80;;;;;;8365426;28;20007;-47
2022/04/05 20:34:45;;;;;;;;;;;17.90;32.80;;;;;;8365562;28;19912;-47
2022/04/05 20:38:46;;;;;;;;;;;17.90;32.80;;;;;;8364558;28;19932;-47
2022/04/05 20:42:47;;;;;;;;;;;17.90;32.80;;;;;;8365153;28;19924;-49
2022/04/05 20:46:47;;;;;;;;;;;17.90;32.80;;;;;;8364891;28;19917;-47
2022/04/05 20:50:48;;;;;;;;;;;17.90;32.80;;;;;;8364241;28;19944;-47
2022/04/05 20:54:48;;;;;;;;;;;17.90;32.80;;;;;;8365013;28;19916;-49
2022/04/05 20:58:49;;;;;;;;;;;17.90;32.80;;;;;;8364754;28;20401;-48
2022/04/05 21:02:49;;;;;;;;;;;17.90;32.80;;;;;;8363992;28;20348;-46
2022/04/05 21:06:50;;;;;;;;;;;17.90;32.90;;;;;;8364410;28;19917;-50
2022/04/05 21:10:52;;;;;;;;;;;17.90;32.90;;;;;;8363883;28;19917;-48
2022/04/05 21:14:53;;;;;;;;;;;17.90;32.90;;;;;;8363938;28;20003;-47
2022/04/05 21:18:53;;;;;;;;;;;17.90;32.90;;;;;;8364295;28;19925;-47
2022/04/05 21:22:53;;;;;;;;;;;17.90;32.90;;;;;;8363962;28;20015;-49
2022/04/05 21:26:54;;;;;;;;;;;17.90;32.90;;;;;;8363326;28;19960;-46
2022/04/05 21:30:54;;;;;;;;;;;17.90;32.90;;;;;;8363856;28;19962;-47
2022/04/05 21:34:55;;;;;;;;;;;17.80;32.90;;;;;;8363824;28;20023;-47
2022/04/05 21:38:55;;;;;;;;;;;17.90;32.90;;;;;;8363002;28;19925;-46
2022/04/05 21:42:56;;;;;;;;;;;17.90;33.00;;;;;;8363654;28;20007;-48
2022/04/05 21:46:56;;;;;;;;;;;17.80;33.00;;;;;;8363433;28;19967;-47
2022/04/05 21:50:57;;;;;;;;;;;17.80;32.90;;;;;;8362751;28;19921;-49
2022/04/05 21:54:57;;;;;;;;;;;17.80;33.00;;;;;;8363493;28;19920;-48
2022/04/05 21:58:58;;;;;;;;;;;17.80;33.00;;;;;;8363509;28;19936;-50
2022/04/05 22:02:58;;;;;;;;;;;17.80;33.00;;;;;;8361737;28;19927;-49
2022/04/05 22:07:00;;;;;;;;;;;17.80;33.10;;;;;;8353457;28;19924;-48
2022/04/05 22:11:01;;;;;;;;;;;17.80;33.00;;;;;;8330020;28;19917;-48
2022/04/05 22:15:02;;;;;;;;;;;17.80;33.00;;;;;;8329659;28;20362;-50
2022/04/05 22:19:02;;;;;;;;;;;17.80;33.10;;;;;;8329734;28;19932;-46
2022/04/05 22:23:06;;;;;;;;;;;17.80;33.10;;;;;;8336112;28;20408;-46
2022/04/05 22:27:07;;;;;;;;;;;17.80;33.20;;;;;;8335843;28;19917;-47
2022/04/05 22:31:07;;;;;;;;;;;17.80;33.20;;;;;;8336104;28;19924;-48
2022/04/05 22:35:08;;;;;;;;;;;17.80;33.10;;;;;;8336472;28;19953;-47
2022/04/05 22:39:08;;;;;;;;;;;17.80;33.20;;;;;;8335420;28;20379;-47
2022/04/05 22:43:09;;;;;;;;;;;17.80;33.80;;;;;;8336087;28;19917;-46
2022/04/05 22:47:09;;;;;;;;;;;17.70;33.20;;;;;;8335735;28;20000;-48
2022/04/05 22:51:10;;;;;;;;;;;17.70;33.10;;;;;;8335747;28;20282;-47
2022/04/05 22:55:10;;;;;;;;;;;17.70;33.20;;;;;;8335710;28;20362;-47
2022/04/05 22:59:11;;;;;;;;;;;17.70;33.20;;;;;;8335776;28;19932;-47
2022/04/05 23:03:11;;;;;;;;;;;17.70;33.20;;;;;;8334739;28;19917;-47
2022/04/05 23:07:12;;;;;;;;;;;17.70;33.20;;;;;;8335093;28;20004;-48
2022/04/05 23:11:13;;;;;;;;;;;17.70;33.20;;;;;;8335077;28;19914;-50
2022/04/05 23:15:14;;;;;;;;;;;17.70;33.20;;;;;;8334641;28;19913;-48
2022/04/05 23:19:14;;;;;;;;;;;17.70;33.20;;;;;;8334711;28;19932;-47
2022/04/05 23:23:14;;;;;;;;;;;17.70;33.30;;;;;;8334277;28;19940;-49